Time;durP1;ratioP1;P1;durP2;ratioP2;P2;SDS_P1;SDS_P2;PMS_P1;PMS_P2;Temp;Humidity;BMP_temperature;BMP_pressure;BME280_temperature;BME280_humidity;BME280_pressure;Samples;Min_cycle;Max_cycle;Signal;HPM_P1;HPM_P2
2023/08/18 00:00:00;;;;;;;4.32;2.05;;;16.90;99.90;;;;;;5074263;28;20466;-77
2023/08/18 00:02:26;;;;;;;4.10;2.15;;;16.90;99.90;;;;;;5074381;28;20066;-76
2023/08/18 00:04:52;;;;;;;3.17;2.00;;;16.90;99.90;;;;;;5106600;28;20036;-76
2023/08/18 00:07:17;;;;;;;5.45;2.28;;;16.80;99.90;;;;;;5075529;28;20082;-76
2023/08/18 00:09:46;;;;;;;4.47;2.17;;;16.80;99.90;;;;;;5074671;28;20086;-76
2023/08/18 00:12:12;;;;;;;5.82;2.20;;;16.80;99.90;;;;;;5074557;28;20203;-76
2023/08/18 00:14:37;;;;;;;3.55;1.80;;;16.80;99.90;;;;;;5089882;28;20179;-76
2023/08/18 00:17:03;;;;;;;5.18;2.20;;;16.70;99.90;;;;;;5106996;28;20453;-76
2023/08/18 00:19:29;;;;;;;3.25;2.10;;;16.70;99.90;;;;;;5074414;28;20070;-76
2023/08/18 00:21:54;;;;;;;4.47;2.10;;;16.70;99.90;;;;;;5074589;28;20078;-76
2023/08/18 00:24:20;;;;;;;10.68;2.05;;;16.60;99.90;;;;;;5106944;28;20101;-75
2023/08/18 00:26:46;;;;;;;3.50;1.95;;;16.60;99.90;;;;;;5073039;28;20513;-75
2023/08/18 00:29:12;;;;;;;2.97;1.75;;;16.50;99.90;;;;;;5074279;28;20041;-76
2023/08/18 00:31:38;;;;;;;3.80;1.90;;;16.50;99.90;;;;;;5089835;28;20080;-76
2023/08/18 00:34:05;;;;;;;5.35;2.05;;;16.50;99.90;;;;;;5107164;27;20087;-76
2023/08/18 00:36:31;;;;;;;4.57;2.20;;;16.50;99.90;;;;;;5056621;28;20562;-76
2023/08/18 00:39:02;;;;;;;4.40;2.03;;;16.50;99.90;;;;;;5072423;28;20045;-76
2023/08/18 00:41:28;;;;;;;5.18;2.03;;;16.40;99.90;;;;;;5090157;28;20070;-77
2023/08/18 00:43:53;;;;;;;3.58;1.90;;;16.40;99.90;;;;;;5074586;28;20143;-76
2023/08/18 00:46:20;;;;;;;4.93;2.17;;;16.40;99.90;;;;;;5107037;28;20372;-76
2023/08/18 00:48:47;;;;;;;3.75;2.20;;;16.40;99.90;;;;;;5073778;28;20445;-76
2023/08/18 00:51:13;;;;;;;4.30;2.47;;;16.40;99.90;;;;;;5089787;28;20079;-76
2023/08/18 00:53:41;;;;;;;4.18;2.67;;;16.40;99.90;;;;;;5106643;28;20072;-76
2023/08/18 00:56:08;;;;;;;5.45;2.85;;;16.40;99.90;;;;;;5074577;28;20041;-76
2023/08/18 00:58:36;;;;;;;5.03;2.40;;;16.40;99.90;;;;;;5073753;28;20041;-76
2023/08/18 01:01:04;;;;;;;6.78;2.90;;;16.30;99.90;;;;;;5106706;28;20051;-76
2023/08/18 01:03:30;;;;;;;5.47;2.33;;;16.30;99.90;;;;;;5096892;28;20482;-76
2023/08/18 01:05:56;;;;;;;9.18;3.08;;;16.40;99.90;;;;;;5071927;28;20037;-76
2023/08/18 01:08:22;;;;;;;4.35;2.65;;;16.40;99.90;;;;;;5073510;28;20048;-76
2023/08/18 01:11:00;;;;;;;5.25;2.78;;;16.40;99.90;;;;;;5073215;28;20047;-76
2023/08/18 01:13:53;;;;;;;5.22;3.00;;;16.40;99.90;;;;;;5105688;27;20049;-75
2023/08/18 01:16:26;;;;;;;4.40;2.55;;;16.40;99.90;;;;;;5089048;28;20045;-76
2023/08/18 01:18:53;;;;;;;6.55;2.53;;;16.40;99.90;;;;;;5072082;28;20056;-76
2023/08/18 01:21:21;;;;;;;7.65;2.72;;;16.50;99.90;;;;;;5073608;28;20040;-75
2023/08/18 01:23:47;;;;;;;7.03;2.95;;;16.50;99.90;;;;;;5088913;28;20130;-76
2023/08/18 01:26:13;;;;;;;4.97;2.40;;;16.50;99.90;;;;;;5105258;28;20181;-77
2023/08/18 01:28:39;;;;;;;5.18;3.17;;;16.50;99.90;;;;;;5113803;27;20469;-76
2023/08/18 01:31:10;;;;;;;6.65;3.00;;;16.50;99.90;;;;;;5092774;28;20401;-76
2023/08/18 01:33:49;;;;;;;6.70;2.90;;;16.50;99.90;;;;;;5081966;28;20120;-76
2023/08/18 01:36:22;;;;;;;5.47;2.60;;;16.50;99.90;;;;;;5073333;28;20051;-75
2023/08/18 01:38:51;;;;;;;5.63;2.80;;;16.50;99.90;;;;;;5073055;28;20044;-76
2023/08/18 01:41:21;;;;;;;3.90;2.78;;;16.60;99.90;;;;;;5073254;28;20391;-76
2023/08/18 01:43:47;;;;;;;5.63;2.50;;;16.50;99.90;;;;;;5091268;28;20040;-76
2023/08/18 01:46:13;;;;;;;3.95;2.40;;;16.60;99.90;;;;;;5093543;28;20046;-76
2023/08/18 01:48:38;;;;;;;4.88;2.80;;;16.60;99.90;;;;;;5092231;28;20051;-76
2023/08/18 01:51:04;;;;;;;5.28;2.83;;;16.60;99.90;;;;;;5110956;27;20471;-76
2023/08/18 01:53:30;;;;;;;3.55;2.55;;;16.60;99.90;;;;;;5105191;28;20060;-77
2023/08/18 01:55:58;;;;;;;5.75;2.90;;;16.60;99.90;;;;;;5072538;28;20036;-76
2023/08/18 01:58:24;;;;;;;5.90;3.17;;;16.60;99.90;;;;;;5072776;28;20094;-77
2023/08/18 02:00:57;;;;;;;5.72;2.75;;;16.60;99.90;;;;;;5072890;28;20391;-76
2023/08/18 02:03:23;;;;;;;4.80;2.47;;;16.60;99.90;;;;;;5072930;28;20420;-76
2023/08/18 02:05:52;;;;;;;5.22;3.35;;;16.60;99.90;;;;;;5071444;28;20052;-76
2023/08/18 02:08:19;;;;;;;8.15;3.38;;;16.60;99.90;;;;;;5072860;28;20044;-76
2023/08/18 02:10:44;;;;;;;12.20;3.92;;;16.60;99.90;;;;;;5072987;28;20466;-76
2023/08/18 02:13:11;;;;;;;6.85;3.50;;;16.60;99.90;;;;;;5073071;28;20072;-76
2023/08/18 02:15:38;;;;;;;6.00;3.20;;;16.60;99.90;;;;;;5106299;28;20089;-76
2023/08/18 02:18:04;;;;;;;5.60;3.20;;;16.60;99.90;;;;;;5105153;28;20061;-76
2023/08/18 02:20:30;;;;;;;5.78;3.20;;;16.50;99.90;;;;;;5105193;28;20055;-76
2023/08/18 02:22:56;;;;;;;10.00;4.50;;;16.50;99.90;;;;;;5072931;28;20175;-76
2023/08/18 02:25:22;;;;;;;7.20;3.63;;;16.60;99.90;;;;;;5072697;28;20611;-76
2023/08/18 02:27:48;;;;;;;6.82;3.45;;;16.60;99.90;;;;;;5072094;28;20074;-76
2023/08/18 02:30:14;;;;;;;7.03;3.33;;;16.60;99.90;;;;;;5073189;28;20402;-76
2023/08/18 02:32:40;;;;;;;6.80;3.67;;;16.60;99.90;;;;;;5071777;28;20094;-77
2023/08/18 02:35:06;;;;;;;8.40;4.00;;;16.60;99.90;;;;;;5071635;28;20037;-76
2023/08/18 02:37:32;;;;;;;4.43;3.28;;;16.60;99.90;;;;;;5105042;28;20482;-76
2023/08/18 02:39:58;;;;;;;9.70;3.80;;;16.60;99.90;;;;;;5108333;28;20036;-76
2023/08/18 02:42:23;;;;;;;6.50;3.55;;;16.60;99.90;;;;;;5076973;28;20045;-77
2023/08/18 02:44:49;;;;;;;7.07;3.60;;;16.70;99.90;;;;;;5076886;28;20048;-77
2023/08/18 02:47:16;;;;;;;7.03;4.15;;;16.70;99.90;;;;;;5075527;28;20152;-76
2023/08/18 02:49:42;;;;;;;8.83;4.03;;;16.70;99.90;;;;;;5082013;28;20125;-76
2023/08/18 02:52:10;;;;;;;6.35;3.60;;;16.70;99.90;;;;;;5080165;28;20450;-75
2023/08/18 02:54:38;;;;;;;8.73;4.15;;;16.70;99.90;;;;;;5075015;28;20036;-76
2023/08/18 02:57:04;;;;;;;9.02;4.25;;;16.70;99.90;;;;;;5076311;28;20456;-76
2023/08/18 02:59:30;;;;;;;10.07;4.55;;;16.70;99.90;;;;;;5077616;28;20436;-76
2023/08/18 03:01:55;;;;;;;5.55;3.90;;;16.70;99.90;;;;;;5076166;28;20037;-75
2023/08/18 03:04:21;;;;;;;6.75;4.25;;;16.70;99.90;;;;;;5076751;28;20037;-75
2023/08/18 03:06:47;;;;;;;7.65;4.00;;;16.70;99.90;;;;;;5115833;27;20043;-76
2023/08/18 03:09:12;;;;;;;9.60;4.80;;;16.70;99.90;;;;;;5096612;28;20123;-77
2023/08/18 03:11:38;;;;;;;7.03;4.18;;;16.80;99.90;;;;;;5077783;28;20075;-76
2023/08/18 03:14:05;;;;;;;7.97;3.97;;;16.80;99.90;;;;;;5092125;28;20120;-77
2023/08/18 03:16:31;;;;;;;8.23;4.05;;;16.80;99.90;;;;;;5075509;28;20128;-77
2023/08/18 03:18:56;;;;;;;11.88;5.00;;;16.70;99.90;;;;;;5075948;28;20163;-77
2023/08/18 03:21:22;;;;;;;9.15;4.40;;;16.80;99.90;;;;;;5076133;28;20037;-75
2023/08/18 03:23:48;;;;;;;9.02;4.80;;;16.80;99.90;;;;;;5077538;28;20044;-76
2023/08/18 03:26:13;;;;;;;6.45;4.45;;;16.80;99.90;;;;;;5094881;28;20044;-75
2023/08/18 03:28:39;;;;;;;7.72;4.55;;;16.80;99.90;;;;;;5086893;28;20494;-76
2023/08/18 03:31:06;;;;;;;11.57;4.72;;;16.80;99.90;;;;;;5057997;28;20044;-76
2023/08/18 03:33:36;;;;;;;6.43;4.55;;;16.80;99.90;;;;;;5075966;28;20422;-76
2023/08/18 03:36:01;;;;;;;11.07;4.63;;;16.80;99.90;;;;;;5074073;28;20048;-75
2023/08/18 03:38:27;;;;;;;7.00;4.70;;;16.80;99.90;;;;;;5092086;28;20420;-75
2023/08/18 03:41:01;;;;;;;7.07;4.55;;;16.80;99.90;;;;;;5095912;28;20044;-76
2023/08/18 03:43:27;;;;;;;9.52;4.75;;;16.80;99.90;;;;;;5089611;28;20085;-76
2023/08/18 03:45:52;;;;;;;9.93;5.70;;;16.80;99.90;;;;;;5074844;28;20044;-76
2023/08/18 03:48:18;;;;;;;9.57;4.93;;;16.80;99.90;;;;;;5076087;28;20121;-75
2023/08/18 03:50:44;;;;;;;11.77;5.43;;;16.80;99.90;;;;;;5073912;28;20077;-76
2023/08/18 03:53:11;;;;;;;7.25;4.63;;;16.80;99.90;;;;;;5076637;28;20551;-76
2023/08/18 03:55:36;;;;;;;8.75;5.60;;;16.80;99.90;;;;;;5082487;28;20036;-76
2023/08/18 03:58:02;;;;;;;9.98;5.28;;;16.80;99.90;;;;;;5076170;28;20170;-76
2023/08/18 04:00:28;;;;;;;12.80;4.95;;;16.80;99.90;;;;;;5075411;28;20098;-76
2023/08/18 04:02:53;;;;;;;8.18;4.45;;;16.80;99.90;;;;;;5108080;28;20401;-74
2023/08/18 04:05:19;;;;;;;7.90;4.85;;;16.80;99.90;;;;;;5075310;28;20076;-76
2023/08/18 04:07:44;;;;;;;8.40;4.93;;;16.90;99.90;;;;;;5075759;28;20446;-75
2023/08/18 04:10:10;;;;;;;7.45;4.47;;;16.90;99.90;;;;;;5108081;28;20483;-75
2023/08/18 04:12:36;;;;;;;9.45;4.70;;;16.90;99.90;;;;;;5108753;28;20036;-75
2023/08/18 04:15:01;;;;;;;9.05;4.55;;;16.90;99.90;;;;;;5075529;28;20068;-75
2023/08/18 04:17:27;;;;;;;8.15;4.68;;;16.90;99.90;;;;;;5075642;28;20084;-77
2023/08/18 04:19:53;;;;;;;6.75;4.68;;;16.90;99.90;;;;;;5075398;28;20054;-75
2023/08/18 04:22:18;;;;;;;14.30;5.18;;;16.90;99.90;;;;;;5074926;28;20039;-75
2023/08/18 04:24:44;;;;;;;10.30;4.70;;;16.90;99.90;;;;;;5075546;28;20041;-75
2023/08/18 04:27:09;;;;;;;11.77;4.55;;;16.90;99.90;;;;;;5107784;28;20056;-75
2023/08/18 04:29:35;;;;;;;8.07;4.47;;;17.00;99.90;;;;;;5107725;27;20056;-76
2023/08/18 04:32:01;;;;;;;9.77;4.65;;;16.90;99.90;;;;;;5074771;28;20486;-76
2023/08/18 04:34:26;;;;;;;8.48;4.97;;;16.90;99.90;;;;;;5073317;28;20123;-75
2023/08/18 04:36:52;;;;;;;10.63;4.93;;;16.90;99.90;;;;;;5093417;28;20040;-76
2023/08/18 04:39:18;;;;;;;7.75;4.55;;;16.90;99.90;;;;;;5093776;28;20043;-77
2023/08/18 04:41:43;;;;;;;6.43;5.00;;;16.90;99.90;;;;;;5080794;28;20390;-76
2023/08/18 04:44:09;;;;;;;9.73;5.88;;;16.90;99.90;;;;;;5073601;28;20390;-76
2023/08/18 04:46:35;;;;;;;10.98;5.00;;;16.90;99.90;;;;;;5074913;28;20036;-75
2023/08/18 04:49:00;;;;;;;7.40;4.88;;;16.90;99.90;;;;;;5074012;28;20152;-76
2023/08/18 04:51:27;;;;;;;10.02;5.05;;;16.90;99.90;;;;;;5074274;28;20395;-76
2023/08/18 04:53:53;;;;;;;11.82;5.05;;;16.90;99.90;;;;;;5074172;28;20040;-75
2023/08/18 04:56:18;;;;;;;13.75;4.88;;;16.90;99.90;;;;;;5074048;28;20081;-75
2023/08/18 04:58:44;;;;;;;9.20;4.60;;;17.00;99.90;;;;;;5073769;28;20354;-76
2023/08/18 05:01:09;;;;;;;7.68;5.00;;;16.90;99.90;;;;;;5072936;28;20455;-75
2023/08/18 05:03:35;;;;;;;12.13;5.28;;;17.00;99.90;;;;;;5095587;28;20036;-76
2023/08/18 05:06:03;;;;;;;6.18;4.10;;;17.00;99.90;;;;;;5094125;28;20051;-76
2023/08/18 05:08:30;;;;;;;11.43;4.78;;;17.00;99.90;;;;;;5091195;28;20119;-76
2023/08/18 05:10:59;;;;;;;10.05;4.72;;;17.00;99.90;;;;;;5106276;28;20044;-75
2023/08/18 05:13:25;;;;;;;8.90;4.50;;;17.00;99.90;;;;;;5073099;28;20067;-76
2023/08/18 05:15:52;;;;;;;8.45;4.43;;;17.00;99.90;;;;;;5105902;28;20463;-76
2023/08/18 05:18:19;;;;;;;8.90;4.63;;;17.00;99.90;;;;;;5073327;28;20127;-76
2023/08/18 05:20:44;;;;;;;9.50;4.03;;;17.00;99.90;;;;;;5088426;28;20060;-75
2023/08/18 05:23:10;;;;;;;8.90;4.60;;;17.00;99.90;;;;;;5073493;28;20036;-76
2023/08/18 05:25:36;;;;;;;8.15;4.72;;;17.00;99.90;;;;;;5073725;28;20048;-76
2023/08/18 05:28:02;;;;;;;9.82;4.85;;;17.00;99.90;;;;;;5074133;28;20044;-75
2023/08/18 05:30:28;;;;;;;8.35;4.63;;;17.00;99.90;;;;;;5073629;28;20087;-75
2023/08/18 05:32:54;;;;;;;8.40;4.40;;;17.00;99.90;;;;;;5073583;28;20087;-76
2023/08/18 05:35:19;;;;;;;6.20;4.65;;;17.00;99.90;;;;;;5073155;28;20036;-76
2023/08/18 05:37:45;;;;;;;8.13;4.47;;;17.10;99.90;;;;;;5073385;28;20040;-76
2023/08/18 05:40:15;;;;;;;8.20;4.20;;;17.00;99.90;;;;;;5085826;28;20421;-76
2023/08/18 05:42:41;;;;;;;6.43;4.63;;;17.00;99.90;;;;;;5093888;28;20047;-76
2023/08/18 05:45:07;;;;;;;10.88;4.82;;;17.10;99.90;;;;;;5073663;28;20306;-77
2023/08/18 05:47:32;;;;;;;7.63;4.50;;;17.10;99.90;;;;;;5073247;28;20051;-76
2023/08/18 05:49:59;;;;;;;10.20;4.63;;;17.00;99.90;;;;;;5073346;28;20119;-76
2023/08/18 05:52:25;;;;;;;6.93;4.57;;;17.00;99.90;;;;;;5071866;28;20088;-76
2023/08/18 05:54:51;;;;;;;7.50;4.47;;;17.00;99.90;;;;;;5073127;28;20490;-77
2023/08/18 05:57:16;;;;;;;9.38;4.75;;;17.00;99.90;;;;;;5072946;28;20056;-76
2023/08/18 05:59:42;;;;;;;12.68;4.70;;;17.00;99.90;;;;;;5072891;28;20083;-75
2023/08/18 06:02:07;;;;;;;11.73;4.85;;;16.80;99.90;;;;;;5105616;28;20071;-76
2023/08/18 06:04:33;;;;;;;14.50;4.38;;;17.00;99.90;;;;;;5115630;27;20531;-76
2023/08/18 06:06:59;;;;;;;10.13;4.35;;;17.00;99.90;;;;;;5075231;28;20123;-77
2023/08/18 06:09:25;;;;;;;12.90;5.20;;;17.00;99.90;;;;;;5093410;28;20122;-76
2023/08/18 06:11:50;;;;;;;8.02;4.35;;;17.00;99.90;;;;;;5093787;28;20120;-76
2023/08/18 06:14:16;;;;;;;11.93;4.90;;;17.00;99.90;;;;;;5075140;28;20152;-76
2023/08/18 06:16:42;;;;;;;7.18;4.32;;;17.00;99.90;;;;;;5107311;28;20430;-78
2023/08/18 06:19:08;;;;;;;8.13;4.93;;;17.10;99.90;;;;;;5075558;28;20406;-76
2023/08/18 06:21:34;;;;;;;8.85;4.88;;;17.10;99.90;;;;;;5075153;28;20093;-76
2023/08/18 06:24:01;;;;;;;11.05;5.40;;;17.00;99.90;;;;;;5075183;28;20096;-75
2023/08/18 06:26:27;;;;;;;11.20;5.25;;;17.10;99.90;;;;;;5074352;28;20041;-76
2023/08/18 06:28:52;;;;;;;9.70;5.07;;;17.10;99.90;;;;;;5073576;28;20037;-76
2023/08/18 06:31:18;;;;;;;11.38;5.20;;;17.10;99.90;;;;;;5105862;28;20049;-77
2023/08/18 06:33:43;;;;;;;8.88;5.45;;;17.20;99.90;;;;;;5073396;28;20051;-76
2023/08/18 06:36:09;;;;;;;14.48;5.80;;;17.20;99.90;;;;;;5073117;28;20552;-76
2023/08/18 06:38:35;;;;;;;12.75;6.00;;;17.20;99.90;;;;;;5062770;28;20072;-77
2023/08/18 06:41:00;;;;;;;9.52;5.75;;;17.20;99.90;;;;;;5072578;28;20068;-76
2023/08/18 06:43:26;;;;;;;15.90;6.68;;;17.20;99.90;;;;;;5073787;28;20041;-76
2023/08/18 06:45:52;;;;;;;13.70;6.22;;;17.20;99.90;;;;;;5077477;28;20052;-75
2023/08/18 06:48:18;;;;;;;9.80;5.75;;;17.30;99.90;;;;;;5076564;28;20488;-76
2023/08/18 06:50:44;;;;;;;12.52;5.70;;;17.30;99.90;;;;;;5077165;28;20044;-76
2023/08/18 06:53:09;;;;;;;10.00;6.32;;;17.30;99.90;;;;;;5076957;28;20036;-75
2023/08/18 06:55:35;;;;;;;10.75;6.47;;;17.40;99.90;;;;;;5106217;28;20074;-76
2023/08/18 06:58:03;;;;;;;12.52;6.47;;;17.40;99.90;;;;;;5105839;28;20036;-77
2023/08/18 07:00:29;;;;;;;11.10;6.38;;;17.40;99.90;;;;;;5073491;28;20068;-76
2023/08/18 07:02:55;;;;;;;10.40;6.18;;;17.40;99.90;;;;;;5071570;28;20036;-77
2023/08/18 07:05:22;;;;;;;21.05;7.82;;;17.40;99.90;;;;;;5072728;28;20126;-76
2023/08/18 07:07:49;;;;;;;12.70;6.45;;;17.30;99.90;;;;;;5088279;28;20162;-75
2023/08/18 07:10:15;;;;;;;11.18;6.60;;;17.40;99.90;;;;;;5074149;28;20102;-76
2023/08/18 07:12:40;;;;;;;12.02;7.00;;;17.40;99.90;;;;;;5072760;28;20094;-77
2023/08/18 07:15:06;;;;;;;12.05;7.22;;;17.40;99.90;;;;;;5072537;28;20044;-76
2023/08/18 07:17:32;;;;;;;14.35;6.90;;;17.40;99.90;;;;;;5072032;28;20088;-75
2023/08/18 07:19:58;;;;;;;13.57;6.95;;;17.40;99.90;;;;;;5072061;28;20478;-76
2023/08/18 07:22:23;;;;;;;14.82;6.97;;;17.50;99.90;;;;;;5072133;28;20450;-76
2023/08/18 07:24:50;;;;;;;15.93;5.97;;;17.50;99.90;;;;;;5072939;28;20043;-76
2023/08/18 07:27:15;;;;;;;16.67;7.38;;;17.50;99.90;;;;;;5076091;28;20044;-76
2023/08/18 07:29:41;;;;;;;12.05;7.03;;;17.50;99.90;;;;;;5077631;28;20048;-77
2023/08/18 07:32:06;;;;;;;11.20;7.35;;;17.50;99.90;;;;;;5058431;28;20436;-77
2023/08/18 07:34:32;;;;;;;17.75;7.78;;;17.50;99.90;;;;;;5075683;28;20570;-75
2023/08/18 07:36:58;;;;;;;14.73;7.28;;;17.60;99.90;;;;;;5074693;28;20040;-76
2023/08/18 07:39:24;;;;;;;15.82;7.82;;;17.60;99.90;;;;;;5076805;28;20123;-79
2023/08/18 07:41:50;;;;;;;14.57;7.53;;;17.70;99.90;;;;;;5076144;28;20059;-78
2023/08/18 07:44:15;;;;;;;15.68;8.57;;;17.60;99.90;;;;;;5075798;28;20041;-77
2023/08/18 07:46:42;;;;;;;16.50;8.85;;;17.60;99.90;;;;;;5075447;28;20032;-77
2023/08/18 07:49:07;;;;;;;15.23;8.05;;;17.70;99.90;;;;;;5075703;28;20116;-77
2023/08/18 07:51:33;;;;;;;17.65;8.52;;;17.70;99.90;;;;;;5074982;28;20194;-77
2023/08/18 07:53:59;;;;;;;17.88;9.15;;;17.70;99.90;;;;;;5074984;28;20540;-77
2023/08/18 07:56:25;;;;;;;15.02;9.05;;;17.70;99.90;;;;;;5075605;28;20036;-76
2023/08/18 07:58:53;;;;;;;15.38;9.18;;;17.70;99.90;;;;;;5056986;28;20166;-76
2023/08/18 08:01:19;;;;;;;15.18;8.57;;;17.70;99.90;;;;;;5075463;28;20393;-77
2023/08/18 08:03:45;;;;;;;16.27;9.02;;;17.70;99.90;;;;;;5074935;28;20119;-77
2023/08/18 08:06:10;;;;;;;16.88;9.20;;;17.80;99.90;;;;;;5078229;28;20079;-75
2023/08/18 08:08:36;;;;;;;18.40;9.15;;;17.80;99.90;;;;;;5076816;28;20051;-76
2023/08/18 08:11:02;;;;;;;17.88;8.50;;;17.90;99.90;;;;;;5095369;28;20036;-76
2023/08/18 08:13:28;;;;;;;19.13;8.18;;;17.90;99.90;;;;;;5094271;28;20450;-75
2023/08/18 08:15:53;;;;;;;22.83;8.88;;;17.90;99.90;;;;;;5085542;28;20040;-78
2023/08/18 08:18:19;;;;;;;14.88;8.05;;;18.00;99.90;;;;;;5108240;28;20048;-76
2023/08/18 08:20:45;;;;;;;16.90;8.68;;;18.00;99.90;;;;;;5074708;28;20159;-78
2023/08/18 08:23:11;;;;;;;14.30;7.35;;;18.10;99.90;;;;;;5075002;28;20101;-77
2023/08/18 08:25:40;;;;;;;16.58;7.70;;;18.10;99.90;;;;;;5075558;28;20040;-78
2023/08/18 08:28:06;;;;;;;15.30;7.35;;;18.20;99.90;;;;;;5075742;28;20102;-77
2023/08/18 08:30:31;;;;;;;16.25;7.60;;;18.30;99.90;;;;;;5108237;28;20426;-76
2023/08/18 08:32:57;;;;;;;17.73;7.32;;;18.30;99.90;;;;;;5075832;28;20040;-79
2023/08/18 08:35:23;;;;;;;18.23;7.05;;;18.30;99.90;;;;;;5075212;28;20045;-76
2023/08/18 08:37:49;;;;;;;13.07;6.88;;;18.40;99.90;;;;;;5075207;28;20041;-76
2023/08/18 08:40:23;;;;;;;12.30;6.43;;;18.50;99.90;;;;;;5075477;28;20048;-77
2023/08/18 08:42:53;;;;;;;17.25;7.65;;;18.60;99.90;;;;;;5076607;28;20044;-77
2023/08/18 08:45:19;;;;;;;12.80;6.10;;;18.60;99.90;;;;;;5076039;28;20461;-77
2023/08/18 08:47:46;;;;;;;12.20;6.13;;;18.60;99.90;;;;;;5075848;28;20060;-77
2023/08/18 08:50:13;;;;;;;12.90;6.10;;;18.70;99.90;;;;;;5075329;28;20036;-76
2023/08/18 08:52:40;;;;;;;14.27;6.68;;;18.70;99.90;;;;;;5075286;28;20123;-77
2023/08/18 08:55:07;;;;;;;14.32;7.68;;;18.80;99.90;;;;;;5074774;28;20051;-78
2023/08/18 08:57:33;;;;;;;15.10;7.65;;;18.70;99.90;;;;;;5076705;28;20051;-78
2023/08/18 09:00:00;;;;;;;13.32;6.78;;;18.80;99.90;;;;;;5107788;28;20098;-78
2023/08/18 09:02:26;;;;;;;9.30;6.18;;;18.80;99.90;;;;;;5087047;28;20117;-77
2023/08/18 09:04:51;;;;;;;10.68;6.45;;;18.90;99.90;;;;;;5094224;28;20406;-77
2023/08/18 09:07:17;;;;;;;11.93;6.20;;;18.90;99.90;;;;;;5092783;28;20158;-76
2023/08/18 09:09:43;;;;;;;17.15;6.32;;;19.00;99.90;;;;;;5081130;28;20057;-77
2023/08/18 09:12:10;;;;;;;11.25;5.40;;;19.00;99.90;;;;;;5073942;28;20075;-76
2023/08/18 09:14:39;;;;;;;10.25;5.32;;;19.10;99.90;;;;;;5072730;28;20045;-76
2023/08/18 09:17:05;;;;;;;9.43;5.30;;;19.10;99.90;;;;;;5073979;28;20052;-76
2023/08/18 09:19:31;;;;;;;15.32;6.22;;;19.10;99.90;;;;;;5074383;28;20041;-76
2023/08/18 09:21:59;;;;;;;9.05;5.95;;;19.20;99.90;;;;;;5074383;28;20086;-77
2023/08/18 09:24:25;;;;;;;11.02;5.28;;;19.20;99.90;;;;;;5075399;28;20044;-77
2023/08/18 09:26:51;;;;;;;12.52;5.97;;;19.30;99.90;;;;;;5074381;28;20556;-76
2023/08/18 09:29:17;;;;;;;12.05;6.05;;;19.30;99.90;;;;;;5074612;28;20410;-77
2023/08/18 09:31:46;;;;;;;13.23;5.38;;;19.30;99.90;;;;;;5106796;28;20041;-77
2023/08/18 09:34:22;;;;;;;12.15;5.70;;;19.30;99.90;;;;;;5074756;28;20036;-78
2023/08/18 09:36:54;;;;;;;8.38;4.93;;;19.30;99.90;;;;;;5073997;28;20046;-76
2023/08/18 09:39:20;;;;;;;9.65;5.68;;;19.30;99.90;;;;;;5074205;28;20093;-77
2023/08/18 09:41:53;;;;;;;8.30;5.70;;;19.30;99.90;;;;;;5073812;28;20418;-76
2023/08/18 09:44:20;;;;;;;11.00;5.43;;;19.30;99.90;;;;;;5107047;28;20084;-77
2023/08/18 09:46:50;;;;;;;10.50;5.80;;;19.30;99.90;;;;;;5106466;28;20482;-77
2023/08/18 09:49:18;;;;;;;12.30;5.72;;;19.40;99.90;;;;;;5089482;28;20128;-77
2023/08/18 09:51:46;;;;;;;12.60;5.50;;;19.50;99.90;;;;;;5073630;28;20115;-77
2023/08/18 09:54:13;;;;;;;9.50;6.22;;;19.60;99.90;;;;;;5073705;28;20044;-78
2023/08/18 09:56:41;;;;;;;10.85;6.80;;;19.70;99.90;;;;;;5074207;28;20435;-75
2023/08/18 09:59:27;;;;;;;11.32;6.75;;;19.70;99.90;;;;;;5073391;28;20063;-77
2023/08/18 10:01:53;;;;;;;14.68;7.60;;;19.60;99.90;;;;;;5073713;28;20093;-76
2023/08/18 10:04:24;;;;;;;11.55;7.28;;;19.60;99.90;;;;;;5071831;28;20041;-75
2023/08/18 10:06:54;;;;;;;10.45;6.93;;;19.60;99.90;;;;;;5055405;28;20105;-77
2023/08/18 10:09:27;;;;;;;11.80;7.25;;;19.60;99.90;;;;;;5073373;28;20055;-77
2023/08/18 10:11:54;;;;;;;10.75;7.20;;;19.60;99.90;;;;;;5073730;28;20407;-77
2023/08/18 10:14:22;;;;;;;13.93;7.97;;;19.60;99.90;;;;;;5106198;28;20044;-77
2023/08/18 10:16:50;;;;;;;8.63;6.82;;;19.60;99.90;;;;;;5073322;28;20044;-76
2023/08/18 10:19:16;;;;;;;9.48;6.80;;;19.70;99.90;;;;;;5072596;28;20063;-78
2023/08/18 10:21:41;;;;;;;12.43;6.95;;;19.90;99.90;;;;;;5073531;28;20044;-75
2023/08/18 10:24:07;;;;;;;11.65;6.78;;;20.00;99.90;;;;;;5085098;28;20044;-76
2023/08/18 10:26:39;;;;;;;13.50;7.28;;;20.10;99.90;;;;;;5071894;28;20036;-76
2023/08/18 10:29:17;;;;;;;13.77;7.63;;;20.20;99.90;;;;;;5093233;28;20115;-77
2023/08/18 10:31:48;;;;;;;8.80;6.93;;;20.30;99.90;;;;;;5092504;28;20117;-77
2023/08/18 10:34:21;;;;;;;15.05;7.25;;;20.30;99.90;;;;;;5075674;28;20053;-76
2023/08/18 10:36:47;;;;;;;9.85;7.00;;;20.30;99.90;;;;;;5072846;28;20045;-77
2023/08/18 10:39:24;;;;;;;15.10;7.18;;;20.40;99.90;;;;;;5073508;28;20052;-76
2023/08/18 10:42:07;;;;;;;14.35;7.70;;;20.50;99.90;;;;;;5073598;28;20036;-76
2023/08/18 10:44:34;;;;;;;12.60;7.78;;;20.50;99.90;;;;;;5073476;28;20044;-76
2023/08/18 10:47:33;;;;;;;10.53;7.20;;;20.50;99.90;;;;;;5074117;28;20399;-76
2023/08/18 10:50:00;;;;;;;12.07;6.82;;;20.50;99.90;;;;;;5074110;28;20406;-77
2023/08/18 10:52:30;;;;;;;10.85;6.38;;;20.50;99.90;;;;;;5055821;28;20032;-76
2023/08/18 10:54:57;;;;;;;8.20;6.75;;;20.50;99.90;;;;;;5073768;28;20134;-77
2023/08/18 10:57:27;;;;;;;11.93;6.30;;;20.60;99.90;;;;;;5073321;28;20040;-76
2023/08/18 10:59:52;;;;;;;12.05;8.32;;;20.60;99.90;;;;;;5091669;28;20049;-76
2023/08/18 11:02:18;;;;;;;9.73;6.68;;;20.70;99.90;;;;;;5079658;28;20039;-76
2023/08/18 11:04:44;;;;;;;12.07;7.20;;;20.80;99.90;;;;;;5081294;28;20356;-77
2023/08/18 11:07:10;;;;;;;11.95;7.07;;;20.90;99.90;;;;;;5111071;28;20048;-77
2023/08/18 11:09:37;;;;;;;13.40;7.30;;;20.90;99.90;;;;;;5078888;28;20498;-77
2023/08/18 11:12:04;;;;;;;8.02;6.00;;;20.90;99.90;;;;;;5109957;28;20052;-76
2023/08/18 11:14:30;;;;;;;15.07;6.28;;;21.00;99.90;;;;;;5093032;28;20044;-77
2023/08/18 11:16:56;;;;;;;9.80;5.93;;;21.10;99.90;;;;;;5079125;28;20052;-78
2023/08/18 11:19:22;;;;;;;9.93;6.70;;;21.20;99.90;;;;;;5077544;28;20588;-77
2023/08/18 11:21:47;;;;;;;14.43;7.10;;;21.30;99.90;;;;;;5076697;28;20055;-76
2023/08/18 11:24:13;;;;;;;9.93;6.93;;;21.30;99.90;;;;;;5076831;28;20036;-76
2023/08/18 11:26:39;;;;;;;11.10;6.40;;;21.40;99.90;;;;;;5074844;28;20056;-77
2023/08/18 11:29:08;;;;;;;12.32;7.32;;;21.40;99.90;;;;;;5093441;28;20051;-76
2023/08/18 11:31:34;;;;;;;9.43;7.07;;;21.40;99.90;;;;;;5076287;28;20049;-77
2023/08/18 11:34:00;;;;;;;10.85;6.57;;;21.50;99.90;;;;;;5110469;28;20409;-77
2023/08/18 11:36:30;;;;;;;9.15;6.00;;;21.60;99.90;;;;;;5095467;28;20040;-77
2023/08/18 11:39:09;;;;;;;8.00;5.93;;;21.70;99.90;;;;;;5091600;28;20055;-76
2023/08/18 11:41:43;;;;;;;9.05;5.72;;;21.80;99.90;;;;;;5108949;28;20040;-77
2023/08/18 11:44:10;;;;;;;8.23;5.50;;;21.90;99.90;;;;;;5076224;28;20051;-75
2023/08/18 11:46:39;;;;;;;10.07;6.63;;;22.00;99.90;;;;;;5076030;28;20041;-76
2023/08/18 11:49:12;;;;;;;10.55;6.28;;;22.00;99.90;;;;;;5074285;28;20506;-76
2023/08/18 11:51:53;;;;;;;10.90;6.25;;;22.10;99.90;;;;;;5091372;28;20059;-77
2023/08/18 11:54:19;;;;;;;10.10;6.70;;;22.20;99.90;;;;;;5108380;27;20056;-77
2023/08/18 11:56:44;;;;;;;8.57;6.90;;;22.20;99.90;;;;;;5076128;28;20037;-77
2023/08/18 11:59:18;;;;;;;11.80;7.22;;;22.30;99.90;;;;;;5075585;28;20045;-76
2023/08/18 12:01:44;;;;;;;8.80;6.93;;;22.30;99.90;;;;;;5074357;28;20063;-76
2023/08/18 12:04:12;;;;;;;9.65;6.85;;;22.40;99.90;;;;;;5057791;28;20387;-77
2023/08/18 12:06:39;;;;;;;9.98;7.70;;;22.40;99.90;;;;;;5075706;28;20040;-77
2023/08/18 12:09:12;;;;;;;8.77;6.57;;;22.40;99.90;;;;;;5075663;28;20048;-78
2023/08/18 12:11:38;;;;;;;11.13;6.95;;;22.40;99.90;;;;;;5073713;28;20079;-78
2023/08/18 12:14:05;;;;;;;8.93;6.57;;;22.40;99.90;;;;;;5075013;28;20063;-76
2023/08/18 12:16:32;;;;;;;13.65;7.20;;;22.40;99.90;;;;;;5081429;28;20078;-77
2023/08/18 12:18:58;;;;;;;10.23;7.25;;;22.50;99.90;;;;;;5075271;28;20056;-77
2023/08/18 12:21:24;;;;;;;9.70;7.30;;;22.50;99.90;;;;;;5107905;28;20097;-77
2023/08/18 12:23:50;;;;;;;13.40;8.80;;;22.50;99.90;;;;;;5076479;28;20048;-78
2023/08/18 12:26:17;;;;;;;10.43;7.80;;;22.50;99.90;;;;;;5078201;28;20047;-77
2023/08/18 12:28:43;;;;;;;11.60;7.32;;;22.40;99.90;;;;;;5075440;28;20075;-76
2023/08/18 12:31:08;;;;;;;12.75;8.52;;;22.40;99.90;;;;;;5108495;28;20040;-77
2023/08/18 12:33:34;;;;;;;13.68;8.48;;;22.40;99.90;;;;;;5108580;28;20049;-77
2023/08/18 12:36:02;;;;;;;11.32;7.75;;;22.40;99.90;;;;;;5075338;28;20067;-76
2023/08/18 12:38:28;;;;;;;11.55;7.80;;;22.40;99.90;;;;;;5074913;28;20119;-76
2023/08/18 12:40:54;;;;;;;12.63;9.07;;;22.50;99.90;;;;;;5070581;28;20064;-77